createdAt,value
2019-04-01T00:01:44.033Z,59.74
2019-04-01T00:04:13.531Z,59.37
2019-04-01T00:06:42.876Z,59.36
2019-04-01T00:09:12.206Z,59.60
2019-04-01T00:11:41.583Z,60.23
2019-04-01T00:14:10.931Z,60.05
2019-04-01T00:16:40.302Z,59.59
2019-04-01T00:19:09.669Z,59.42
2019-04-01T00:21:39.029Z,58.92
2019-04-01T00:24:08.383Z,58.82
2019-04-01T00:26:37.741Z,58.73
2019-04-01T00:29:07.107Z,58.95
2019-04-01T00:31:36.435Z,58.66
2019-04-01T00:34:05.800Z,58.55
2019-04-01T00:36:35.121Z,58.78
2019-04-01T00:39:06.624Z,58.45
2019-04-01T00:41:41.782Z,58.37
2019-04-01T00:44:12.799Z,58.57
2019-04-01T00:46:42.126Z,58.40
2019-04-01T00:49:11.507Z,58.24
2019-04-01T00:51:40.818Z,58.21
2019-04-01T00:54:10.221Z,57.96
2019-04-01T00:56:39.555Z,57.93
2019-04-01T00:59:08.915Z,58.35
2019-04-01T01:01:38.273Z,58.15
2019-04-01T01:04:07.637Z,58.39
2019-04-01T01:06:36.997Z,58.51
2019-04-01T01:09:06.884Z,58.67
2019-04-01T01:11:36.268Z,58.67
2019-04-01T01:14:05.733Z,58.63
2019-04-01T01:16:35.083Z,58.70
2019-04-01T01:19:04.554Z,59.16
2019-04-01T01:21:34.781Z,59.43
2019-04-01T01:24:04.208Z,59.29
2019-04-01T01:26:33.543Z,59.79
2019-04-01T01:29:02.897Z,60.36
2019-04-01T01:31:32.288Z,60.14
2019-04-01T01:34:01.638Z,60.30
2019-04-01T01:36:31.065Z,60.84
2019-04-01T01:39:00.434Z,61.39
2019-04-01T01:41:29.801Z,61.41
2019-04-01T01:43:59.251Z,61.96
2019-04-01T01:46:28.642Z,61.94
2019-04-01T01:48:58.036Z,62.36
2019-04-01T01:51:27.444Z,62.82
2019-04-01T01:53:56.758Z,62.77
2019-04-01T01:56:26.126Z,62.76
2019-04-01T01:58:55.479Z,63.46
2019-04-01T02:01:24.835Z,64.02
2019-04-01T02:03:54.245Z,63.88
2019-04-01T02:06:23.627Z,63.85
2019-04-01T02:08:53.004Z,64.07
2019-04-01T02:11:22.440Z,63.92
2019-04-01T02:13:51.755Z,63.85
2019-04-01T02:16:21.126Z,64.42
2019-04-01T02:18:50.480Z,64.49
2019-04-01T02:21:19.839Z,64.58
2019-04-01T02:23:49.197Z,64.93
2019-04-01T02:26:18.579Z,64.92
2019-04-01T02:28:48.025Z,65.30
2019-04-01T02:31:17.375Z,65.45
2019-04-01T02:33:46.774Z,65.49
2019-04-01T02:36:16.159Z,65.97
2019-04-01T02:38:45.573Z,65.92
2019-04-01T02:41:14.928Z,66.25
2019-04-01T02:43:44.286Z,65.98
2019-04-01T02:46:13.661Z,66.12
2019-04-01T02:48:43.078Z,66.50
2019-04-01T02:51:12.393Z,66.48
2019-04-01T02:53:41.804Z,66.39
2019-04-01T02:56:11.178Z,66.47
2019-04-01T02:58:40.559Z,66.17
2019-04-01T03:01:09.912Z,66.32
2019-04-01T03:03:39.247Z,66.40
2019-04-01T03:06:08.609Z,66.69
2019-04-01T03:08:37.960Z,66.76
2019-04-01T03:11:10.361Z,66.84
2019-04-01T03:13:38.469Z,67.00
2019-04-01T03:16:07.836Z,66.97
2019-04-01T03:18:37.197Z,66.82
2019-04-01T03:21:06.598Z,67.48
2019-04-01T03:23:35.946Z,67.06
2019-04-01T03:26:05.300Z,67.26
2019-04-01T03:28:34.657Z,67.23
2019-04-01T03:31:04.086Z,67.25
2019-04-01T03:33:33.461Z,67.19
2019-04-01T03:36:02.825Z,67.21
2019-04-01T03:38:32.209Z,67.10
2019-04-01T03:41:01.543Z,67.42
2019-04-01T03:43:30.910Z,67.63
2019-04-01T03:46:00.515Z,67.70
2019-04-01T03:48:29.816Z,67.83
2019-04-01T03:50:59.233Z,67.64
2019-04-01T03:53:28.592Z,67.66
2019-04-01T03:55:57.938Z,67.34
2019-04-01T03:58:27.307Z,67.40
2019-04-01T04:00:56.711Z,67.12
2019-04-01T04:03:26.063Z,66.61
2019-04-01T04:05:55.427Z,67.08
2019-04-01T04:08:24.766Z,67.88
2019-04-01T04:10:54.107Z,67.75
2019-04-01T04:13:23.535Z,67.49
2019-04-01T04:15:57.520Z,67.79
2019-04-01T04:18:24.113Z,68.03
2019-04-01T04:20:53.962Z,68.18
2019-04-01T04:23:23.328Z,68.04
2019-04-01T04:25:52.653Z,68.55
2019-04-01T04:28:22.045Z,68.65
2019-04-01T04:30:51.419Z,68.63
2019-04-01T04:33:20.777Z,68.57
2019-04-01T04:35:50.212Z,68.72
2019-04-01T04:38:19.544Z,69.15
2019-04-01T04:40:48.912Z,68.75
2019-04-01T04:43:18.304Z,69.34
2019-04-01T04:45:47.630Z,69.11
2019-04-01T04:48:16.990Z,69.18
2019-04-01T04:50:46.359Z,69.37
2019-04-01T04:53:15.705Z,69.70
2019-04-01T04:55:45.046Z,69.37
2019-04-01T04:58:14.417Z,68.95
2019-04-01T05:00:43.762Z,68.91
2019-04-01T05:03:13.157Z,68.46
2019-04-01T05:05:42.665Z,68.21
2019-04-01T05:08:12.030Z,68.11
2019-04-01T05:10:41.390Z,67.90
2019-04-01T05:13:10.747Z,67.43
2019-04-01T05:15:40.107Z,67.36
2019-04-01T05:18:09.550Z,66.72
2019-04-01T05:20:41.131Z,66.38
2019-04-01T05:23:12.613Z,66.36
2019-04-01T05:25:42.477Z,66.15
2019-04-01T05:28:14.509Z,66.21
2019-04-01T05:30:46.402Z,66.00
2019-04-01T05:33:18.520Z,65.84
2019-04-01T05:35:47.837Z,65.53
2019-04-01T05:38:18.095Z,65.39
2019-04-01T05:40:47.464Z,64.83
2019-04-01T05:43:16.852Z,64.88
2019-04-01T05:45:46.679Z,64.62
2019-04-01T05:48:17.387Z,64.40
2019-04-01T05:50:46.736Z,64.30
2019-04-01T05:53:16.103Z,63.99
2019-04-01T05:55:45.445Z,63.71
2019-04-01T05:58:14.823Z,63.58
2019-04-01T06:00:48.096Z,63.53
2019-04-01T06:03:17.459Z,63.35
2019-04-01T06:05:46.929Z,63.14
2019-04-01T06:08:17.376Z,62.75
2019-04-01T06:10:46.825Z,62.77
2019-04-01T06:13:16.591Z,62.62
2019-04-01T06:15:45.955Z,62.11
2019-04-01T06:18:15.321Z,61.72
2019-04-01T06:20:44.785Z,61.61
2019-04-01T06:23:14.171Z,61.31
2019-04-01T06:25:43.539Z,61.05
2019-04-01T06:28:12.860Z,60.71
2019-04-01T06:30:42.176Z,60.33
2019-04-01T06:33:11.645Z,60.41
2019-04-01T06:35:41.038Z,59.69
2019-04-01T06:38:10.529Z,59.55
2019-04-01T06:40:39.899Z,59.22
2019-04-01T06:43:09.525Z,59.06
2019-04-01T06:45:38.943Z,58.86
2019-04-01T06:48:08.376Z,58.30
2019-04-01T06:50:37.733Z,57.57
2019-04-01T06:53:07.121Z,57.26
2019-04-01T06:55:36.810Z,57.17
2019-04-01T06:58:06.265Z,56.50
2019-04-01T07:00:37.110Z,56.67
2019-04-01T07:03:06.491Z,56.39
2019-04-01T07:05:36.303Z,55.70
2019-04-01T07:08:05.706Z,55.52
2019-04-01T07:10:35.237Z,54.99
2019-04-01T07:13:04.626Z,54.86
2019-04-01T07:15:34.027Z,54.14
2019-04-01T07:18:03.396Z,53.66
2019-04-01T07:20:32.817Z,53.81
2019-04-01T07:23:02.218Z,53.09
2019-04-01T07:25:34.116Z,52.66
2019-04-01T07:28:02.758Z,52.76
2019-04-01T07:30:32.207Z,52.01
2019-04-01T07:33:01.558Z,51.76
2019-04-01T07:35:31.801Z,51.53
2019-04-01T07:38:01.150Z,51.00
2019-04-01T07:40:30.506Z,50.43
2019-04-01T07:43:00.159Z,49.63
2019-04-01T07:45:29.682Z,49.57
2019-04-01T07:47:59.143Z,48.81
2019-04-01T07:50:28.594Z,47.61
2019-04-01T07:52:57.984Z,47.57
2019-04-01T07:55:27.361Z,46.81
2019-04-01T07:57:59.572Z,46.35
2019-04-01T08:00:28.329Z,45.92
2019-04-01T08:02:57.820Z,45.83
2019-04-01T08:05:27.385Z,45.25
2019-04-01T08:07:57.262Z,45.39
2019-04-01T08:10:26.990Z,45.38
2019-04-01T08:12:56.578Z,44.49
2019-04-01T08:15:25.929Z,44.04
2019-04-01T08:17:55.294Z,43.90
2019-04-01T08:20:24.683Z,43.25
2019-04-01T08:22:54.085Z,42.20
2019-04-01T08:25:23.520Z,41.11
2019-04-01T08:27:52.993Z,41.11
2019-04-01T08:30:22.388Z,40.87
2019-04-01T08:32:52.941Z,40.89
2019-04-01T08:35:22.367Z,40.66
2019-04-01T08:37:51.975Z,40.66
2019-04-01T08:40:21.399Z,40.80
2019-04-01T08:42:51.169Z,40.80
2019-04-01T08:45:20.560Z,39.60
2019-04-01T08:47:49.937Z,39.60
2019-04-01T08:50:19.722Z,38.75
2019-04-01T08:52:49.134Z,38.47
2019-04-01T08:55:18.517Z,39.04
2019-04-01T08:57:47.921Z,38.88
2019-04-01T09:00:17.522Z,37.90
2019-04-01T09:02:46.970Z,38.12
2019-04-01T09:05:16.304Z,38.27
2019-04-01T09:07:45.780Z,38.00
2019-04-01T09:10:15.210Z,36.71
2019-04-01T09:12:45.194Z,37.19
2019-04-01T09:15:15.080Z,37.95
2019-04-01T09:17:44.446Z,37.30
2019-04-01T09:20:13.935Z,36.89
2019-04-01T09:22:43.296Z,36.86
2019-04-01T09:25:12.644Z,36.77
2019-04-01T09:27:42.012Z,35.89
2019-04-01T09:30:11.866Z,36.15
2019-04-01T09:32:41.226Z,35.39
2019-04-01T09:35:10.986Z,35.65
2019-04-01T09:37:40.444Z,35.68
2019-04-01T09:40:10.211Z,36.19
2019-04-01T09:42:39.724Z,35.35
2019-04-01T09:45:09.674Z,35.47
2019-04-01T09:47:39.059Z,35.01
2019-04-01T09:50:08.665Z,34.68
2019-04-01T09:52:38.130Z,35.07
2019-04-01T09:55:07.835Z,34.84
2019-04-01T09:57:37.199Z,34.88
2019-04-01T10:00:07.245Z,34.19
2019-04-01T10:02:36.739Z,34.02
2019-04-01T10:05:06.598Z,33.63
2019-04-01T10:07:36.106Z,33.29
2019-04-01T10:10:06.199Z,32.32
2019-04-01T10:12:35.551Z,30.63
2019-04-01T10:15:05.366Z,29.75
2019-04-01T10:17:34.713Z,29.20
2019-04-01T10:20:04.368Z,29.20
2019-04-01T10:22:33.743Z,28.54
2019-04-01T10:25:03.200Z,29.13
2019-04-01T10:27:32.578Z,28.31
2019-04-01T10:30:01.968Z,27.17
2019-04-01T10:32:31.354Z,26.88
2019-04-01T10:35:00.743Z,26.97
2019-04-01T10:37:30.147Z,27.25
2019-04-01T10:40:00.428Z,26.65
2019-04-01T10:42:30.194Z,25.79
2019-04-01T10:44:59.585Z,25.88
2019-04-01T10:47:29.008Z,25.70
2019-04-01T10:49:58.628Z,25.30
2019-04-01T10:52:28.952Z,24.47
2019-04-01T10:54:58.299Z,24.47
2019-04-01T10:57:28.014Z,24.14
2019-04-01T10:59:57.580Z,24.49
2019-04-01T11:02:26.924Z,24.46
2019-04-01T11:04:57.454Z,23.48
2019-04-01T11:07:26.905Z,22.93
2019-04-01T11:09:56.230Z,22.58
2019-04-01T11:12:25.570Z,23.38
2019-04-01T11:14:54.955Z,22.97
2019-04-01T11:17:24.352Z,22.73
2019-04-01T11:19:53.755Z,22.54
2019-04-01T11:22:23.065Z,21.91
2019-04-01T11:24:52.519Z,21.92
2019-04-01T11:27:21.846Z,21.79
2019-04-01T11:29:51.205Z,21.63
2019-04-01T11:32:20.562Z,21.50
2019-04-01T11:34:49.894Z,21.53
2019-04-01T11:37:19.381Z,21.64
2019-04-01T11:39:48.737Z,21.35
2019-04-01T11:42:18.133Z,21.34
2019-04-01T11:44:47.578Z,21.34
2019-04-01T11:47:16.998Z,21.09
2019-04-01T11:49:46.701Z,21.89
2019-04-01T11:52:16.125Z,22.12
2019-04-01T11:54:45.481Z,21.37
2019-04-01T11:57:14.831Z,21.45
2019-04-01T11:59:44.188Z,21.75
2019-04-01T12:02:13.568Z,21.58
2019-04-01T12:04:42.944Z,21.81
2019-04-01T12:07:12.270Z,22.04
2019-04-01T12:09:41.679Z,21.68
2019-04-01T12:12:22.702Z,22.65
2019-04-01T12:14:42.156Z,23.13
2019-04-01T12:17:11.526Z,23.09
2019-04-01T12:19:40.960Z,22.59
2019-04-01T12:22:11.192Z,22.42
2019-04-01T12:24:40.674Z,22.67
2019-04-01T12:27:10.645Z,22.29
2019-04-01T12:29:40.072Z,21.84
2019-04-01T12:32:09.410Z,21.26
2019-04-01T12:34:42.057Z,20.99
2019-04-01T12:37:09.899Z,21.22
2019-04-01T12:39:39.341Z,20.63
2019-04-01T12:42:09.530Z,21.34
2019-04-01T12:44:39.029Z,21.26
2019-04-01T12:47:08.412Z,21.05
2019-04-01T12:49:37.789Z,21.25
2019-04-01T12:52:07.177Z,21.20
2019-04-01T12:54:36.543Z,21.61
2019-04-01T12:57:05.936Z,21.58
2019-04-01T12:59:35.293Z,21.37
2019-04-01T13:02:04.644Z,21.02
2019-04-01T13:04:36.104Z,20.64
2019-04-01T13:07:06.255Z,20.68
2019-04-01T13:09:35.703Z,20.57
2019-04-01T13:12:05.260Z,20.73
2019-04-01T13:14:40.093Z,20.66
2019-04-01T13:17:08.574Z,20.33
2019-04-01T13:19:38.126Z,20.32
2019-04-01T13:22:09.060Z,20.62
2019-04-01T13:24:39.110Z,20.58
2019-04-01T13:27:09.274Z,20.52
2019-04-01T13:29:39.023Z,20.34
2019-04-01T13:32:08.389Z,20.14
2019-04-01T13:34:37.850Z,20.27
2019-04-01T13:37:07.385Z,19.54
2019-04-01T13:39:36.713Z,19.72
2019-04-01T13:42:06.119Z,19.48
2019-04-01T13:44:37.256Z,19.68
2019-04-01T13:47:06.600Z,20.23
2019-04-01T13:49:36.002Z,20.10
2019-04-01T13:52:06.154Z,19.88
2019-04-01T13:54:35.495Z,20.07
2019-04-01T13:57:04.887Z,20.20
2019-04-01T13:59:48.040Z,20.00
2019-04-01T14:02:05.355Z,19.99
2019-04-01T14:04:34.734Z,19.79
2019-04-01T14:07:04.292Z,19.84
2019-04-01T14:09:33.721Z,19.57
2019-04-01T14:12:03.110Z,19.67
2019-04-01T14:14:32.445Z,19.70
2019-04-01T14:17:01.847Z,19.72
2019-04-01T14:19:31.288Z,19.93
2019-04-01T14:22:00.648Z,19.94
2019-04-01T14:24:30.014Z,20.11
2019-04-01T14:26:59.410Z,20.16
2019-04-01T14:29:28.731Z,20.11
2019-04-01T14:31:58.119Z,20.03
2019-04-01T14:34:27.541Z,20.09
2019-04-01T14:36:56.868Z,20.11
2019-04-01T14:39:26.218Z,20.56
2019-04-01T14:41:55.702Z,20.39
2019-04-01T14:44:25.087Z,20.50
2019-04-01T14:46:54.457Z,20.81
2019-04-01T14:49:23.862Z,21.65
2019-04-01T14:51:53.196Z,21.40
2019-04-01T14:54:22.591Z,21.77
2019-04-01T14:56:52.016Z,21.95
2019-04-01T14:59:21.376Z,22.02
2019-04-01T15:01:50.708Z,22.37
2019-04-01T15:04:20.149Z,22.35
2019-04-01T15:06:49.550Z,21.76
2019-04-01T15:09:19.354Z,21.78
2019-04-01T15:11:48.827Z,21.98
2019-04-01T15:14:18.210Z,21.79
2019-04-01T15:16:47.602Z,21.93
2019-04-01T15:19:16.951Z,22.11
2019-04-01T15:21:47.471Z,22.04
2019-04-01T15:24:17.020Z,21.97
2019-04-01T15:26:46.399Z,22.17
2019-04-01T15:29:15.774Z,22.47
2019-04-01T15:31:45.416Z,22.64
2019-04-01T15:34:14.734Z,22.65
2019-04-01T15:36:44.158Z,22.83
2019-04-01T15:39:15.383Z,22.79
2019-04-01T15:41:45.442Z,23.38
2019-04-01T15:44:15.138Z,23.55
2019-04-01T15:46:44.567Z,24.16
2019-04-01T15:49:13.984Z,24.10
2019-04-01T15:51:43.361Z,24.56
2019-04-01T15:54:13.154Z,24.89
2019-04-01T15:56:42.544Z,25.34
2019-04-01T15:59:11.877Z,25.69
2019-04-01T16:01:41.209Z,25.69
2019-04-01T16:04:10.669Z,25.51
2019-04-01T16:06:40.035Z,25.63
2019-04-01T16:09:09.618Z,25.30
2019-04-01T16:11:39.044Z,25.56
2019-04-01T16:14:08.449Z,25.92
2019-04-01T16:19:06.033Z,26.39
2019-04-01T16:21:35.429Z,26.94
2019-04-01T16:24:04.959Z,27.14
2019-04-01T16:26:34.341Z,27.43
2019-04-01T16:29:03.984Z,27.88
2019-04-01T16:31:33.394Z,28.30
2019-04-01T16:34:02.775Z,28.58
2019-04-01T16:36:32.232Z,28.80
2019-04-01T16:39:01.606Z,29.26
2019-04-01T16:41:31.026Z,29.36
2019-04-01T16:44:00.459Z,29.49
2019-04-01T16:46:29.981Z,29.84
2019-04-01T16:48:59.479Z,30.29
2019-04-01T16:51:29.001Z,30.29
2019-04-01T16:53:58.452Z,30.44
2019-04-01T16:56:27.959Z,30.88
2019-04-01T16:58:57.426Z,31.52
2019-04-01T17:01:26.867Z,31.66
2019-04-01T17:03:56.339Z,31.69
2019-04-01T17:06:26.134Z,31.28
2019-04-01T17:08:55.479Z,31.80
2019-04-01T17:11:24.925Z,31.84
2019-04-01T17:13:55.677Z,31.72
2019-04-01T17:16:25.856Z,32.18
2019-04-01T17:18:57.681Z,31.80
2019-04-01T17:21:26.492Z,32.24
2019-04-01T17:23:55.884Z,32.84
2019-04-01T17:26:25.250Z,32.93
2019-04-01T17:28:57.449Z,33.08
2019-04-01T17:31:26.891Z,33.52
2019-04-01T17:33:56.262Z,33.69
2019-04-01T17:36:25.701Z,33.77
2019-04-01T17:38:55.127Z,33.13
2019-04-01T17:41:24.545Z,32.67
2019-04-01T17:43:53.956Z,32.96
2019-04-01T17:46:26.272Z,32.93
2019-04-01T17:48:54.559Z,32.86
2019-04-01T17:51:23.955Z,32.71
2019-04-01T17:53:53.464Z,32.40
2019-04-01T17:56:22.938Z,33.38
2019-04-01T17:58:52.377Z,33.38
2019-04-01T18:01:21.773Z,33.42
2019-04-01T18:03:51.185Z,33.51
2019-04-01T18:06:20.945Z,33.63
2019-04-01T18:08:50.333Z,33.49
2019-04-01T18:11:19.816Z,33.93
2019-04-01T18:13:50.142Z,33.48
2019-04-01T18:16:20.317Z,33.89
2019-04-01T18:18:49.703Z,34.28
2019-04-01T18:21:19.090Z,34.28
2019-04-01T18:23:48.485Z,34.25
2019-04-01T18:26:18.281Z,34.84
2019-04-01T18:28:47.828Z,35.16
2019-04-01T18:31:17.292Z,35.43
2019-04-01T18:33:56.029Z,35.69
2019-04-01T18:36:18.797Z,35.82
2019-04-01T18:38:48.245Z,35.89
2019-04-01T18:41:17.729Z,35.97
2019-04-01T18:43:47.340Z,36.35
2019-04-01T18:46:16.805Z,36.26
2019-04-01T18:48:46.200Z,36.56
2019-04-01T18:51:15.646Z,36.81
2019-04-01T18:53:45.057Z,36.89
2019-04-01T18:56:14.471Z,37.03
2019-04-01T18:58:43.839Z,36.90
2019-04-01T19:01:13.215Z,36.93
2019-04-01T19:03:43.068Z,37.22
2019-04-01T19:06:12.826Z,36.76
2019-04-01T19:08:42.232Z,36.69
2019-04-01T19:11:11.677Z,36.79
2019-04-01T19:13:42.250Z,37.02
2019-04-01T19:16:14.419Z,37.19
2019-04-01T19:18:43.275Z,37.19
2019-04-01T19:21:12.727Z,37.27
2019-04-01T19:23:42.175Z,37.15
2019-04-01T19:26:11.597Z,37.21
2019-04-01T19:28:41.087Z,37.15
2019-04-01T19:31:11.999Z,36.90
2019-04-01T19:33:41.481Z,36.26
2019-04-01T19:36:10.882Z,36.38
2019-04-01T19:38:40.340Z,36.30
2019-04-01T19:41:09.950Z,36.35
2019-04-01T19:43:39.295Z,36.45
2019-04-01T19:46:09.440Z,36.52
2019-04-01T19:48:39.208Z,36.67
2019-04-01T19:51:08.673Z,36.57
2019-04-01T19:53:38.711Z,36.71
2019-04-01T19:56:08.130Z,36.47
2019-04-01T19:58:37.574Z,36.55
2019-04-01T20:01:06.991Z,36.63
2019-04-01T20:03:36.414Z,36.84
2019-04-01T20:06:07.412Z,36.74
2019-04-01T20:08:37.227Z,37.06
2019-04-01T20:11:06.641Z,37.11
2019-04-01T20:13:36.157Z,37.34
2019-04-01T20:16:05.577Z,37.49
2019-04-01T20:18:35.322Z,37.45
2019-04-01T20:21:05.850Z,37.64
2019-04-01T20:23:35.237Z,37.67
2019-04-01T20:26:05.069Z,37.66
2019-04-01T20:28:34.439Z,37.74
2019-04-01T20:31:03.818Z,37.88
2019-04-01T20:33:33.227Z,37.96
2019-04-01T20:36:02.756Z,37.87
2019-04-01T20:38:32.240Z,37.81
2019-04-01T20:41:01.672Z,38.47
2019-04-01T20:43:31.065Z,38.01
2019-04-01T20:46:00.866Z,38.47
2019-04-01T20:48:30.307Z,37.85
2019-04-01T20:50:59.641Z,38.20
2019-04-01T20:53:29.041Z,37.84
2019-04-01T20:56:00.778Z,38.07
2019-04-01T20:58:30.135Z,38.03
2019-04-01T21:00:59.524Z,38.56
2019-04-01T21:03:30.171Z,38.49
2019-04-01T21:05:59.639Z,38.54
2019-04-01T21:08:29.074Z,38.75
2019-04-01T21:10:58.480Z,38.79
2019-04-01T21:13:27.939Z,39.13
2019-04-01T21:15:58.228Z,39.35
2019-04-01T21:18:28.530Z,39.35
2019-04-01T21:20:57.934Z,39.46
2019-04-01T21:23:27.326Z,39.76
2019-04-01T21:25:56.737Z,39.98
2019-04-01T21:28:26.118Z,40.19
2019-04-01T21:30:55.476Z,40.32
2019-04-01T21:33:24.870Z,40.65
2019-04-01T21:35:54.353Z,40.89
2019-04-01T21:38:23.682Z,40.88
2019-04-01T21:40:53.052Z,41.06
2019-04-01T21:43:22.406Z,41.36
2019-04-01T21:45:51.825Z,41.52
2019-04-01T21:48:21.233Z,41.69
2019-04-01T21:50:50.642Z,41.95
2019-04-01T21:53:20.020Z,42.01
2019-04-01T21:55:49.405Z,42.09
2019-04-01T21:58:19.138Z,42.33
2019-04-01T22:00:52.240Z,42.24
2019-04-01T22:03:21.631Z,42.26
2019-04-01T22:05:50.976Z,42.33
2019-04-01T22:08:20.568Z,42.58
2019-04-01T22:10:49.961Z,42.65
2019-04-01T22:13:19.300Z,42.65
2019-04-01T22:15:50.068Z,42.58
2019-04-01T22:18:19.889Z,42.69
2019-04-01T22:20:49.305Z,42.73
2019-04-01T22:23:18.823Z,42.63
2019-04-01T22:25:48.256Z,42.71
2019-04-01T22:28:17.611Z,42.66
2019-04-01T22:30:47.044Z,42.66
2019-04-01T22:33:16.428Z,43.37
2019-04-01T22:35:45.848Z,42.88
2019-04-01T22:38:24.645Z,43.20
2019-04-01T22:40:46.251Z,43.40
2019-04-01T22:43:16.051Z,43.30
2019-04-01T22:45:45.412Z,43.92
2019-04-01T22:48:14.787Z,44.12
2019-04-01T22:50:44.198Z,44.19
2019-04-01T22:53:13.582Z,44.65
2019-04-01T22:55:42.959Z,45.05
2019-04-01T22:58:12.406Z,45.39
2019-04-01T23:00:41.842Z,45.77
2019-04-01T23:03:11.436Z,45.66
2019-04-01T23:05:41.252Z,46.13
2019-04-01T23:08:10.579Z,46.55
2019-04-01T23:10:39.937Z,46.61
2019-04-01T23:13:09.333Z,47.05
2019-04-01T23:15:38.653Z,47.22
2019-04-01T23:18:08.084Z,47.67
2019-04-01T23:20:37.490Z,47.71
2019-04-01T23:23:06.864Z,47.73
2019-04-01T23:25:36.298Z,47.83
2019-04-01T23:28:05.677Z,48.13
2019-04-01T23:30:35.061Z,48.19
2019-04-01T23:33:04.474Z,48.39
2019-04-01T23:35:33.836Z,48.46
2019-04-01T23:38:03.212Z,48.46
2019-04-01T23:40:32.881Z,48.60
2019-04-01T23:43:02.365Z,48.78
2019-04-01T23:45:31.707Z,48.47
2019-04-01T23:48:01.139Z,48.63
2019-04-01T23:50:30.536Z,48.84
2019-04-01T23:53:02.160Z,48.84
2019-04-01T23:55:31.528Z,48.84
2019-04-01T23:58:00.930Z,49.01
